sensor_id;sensor_type;location;lat;lon;timestamp;P1;durP1;ratioP1;P2;durP2;ratioP2
42246;SDS011;27913;42.722;23.268;2023-09-19T04:15:40;9.25;;;4.47;;
42246;SDS011;27913;42.722;23.268;2023-09-19T04:18:06;8.38;;;4.68;;
42246;SDS011;27913;42.722;23.268;2023-09-19T04:20:32;7.97;;;4.88;;
42246;SDS011;27913;42.722;23.268;2023-09-19T04:22:57;8.20;;;5.18;;
42246;SDS011;27913;42.722;23.268;2023-09-19T04:25:24;8.52;;;4.72;;
42246;SDS011;27913;42.722;23.268;2023-09-19T04:27:51;7.18;;;4.70;;
42246;SDS011;27913;42.722;23.268;2023-09-19T04:30:17;9.30;;;5.20;;
42246;SDS011;27913;42.722;23.268;2023-09-19T04:32:42;12.25;;;5.13;;
42246;SDS011;27913;42.722;23.268;2023-09-19T04:35:08;8.48;;;5.63;;
42246;SDS011;27913;42.722;23.268;2023-09-19T04:37:38;12.43;;;6.30;;
42246;SDS011;27913;42.722;23.268;2023-09-19T04:40:08;10.70;;;5.90;;
42246;SDS011;27913;42.722;23.268;2023-09-19T04:42:38;8.25;;;5.43;;
42246;SDS011;27913;42.722;23.268;2023-09-19T04:45:05;11.77;;;6.70;;
42246;SDS011;27913;42.722;23.268;2023-09-19T04:47:30;16.25;;;7.20;;
42246;SDS011;27913;42.722;23.268;2023-09-19T04:49:56;10.88;;;5.90;;
42246;SDS011;27913;42.722;23.268;2023-09-19T04:52:23;10.88;;;6.40;;
42246;SDS011;27913;42.722;23.268;2023-09-19T04:54:49;8.35;;;5.90;;
42246;SDS011;27913;42.722;23.268;2023-09-19T04:57:15;9.65;;;6.75;;
42246;SDS011;27913;42.722;23.268;2023-09-19T04:59:41;15.68;;;6.90;;
42246;SDS011;27913;42.722;23.268;2023-09-19T05:02:06;9.82;;;5.95;;
42246;SDS011;27913;42.722;23.268;2023-09-19T05:04:33;12.82;;;5.47;;
42246;SDS011;27913;42.722;23.268;2023-09-19T05:06:59;8.90;;;5.80;;
42246;SDS011;27913;42.722;23.268;2023-09-19T05:09:26;11.70;;;6.82;;
42246;SDS011;27913;42.722;23.268;2023-09-19T05:11:51;11.63;;;6.88;;
42246;SDS011;27913;42.722;23.268;2023-09-19T05:14:19;13.38;;;6.80;;
42246;SDS011;27913;42.722;23.268;2023-09-19T05:16:46;15.35;;;6.88;;
42246;SDS011;27913;42.722;23.268;2023-09-19T05:19:11;9.90;;;6.38;;
42246;SDS011;27913;42.722;23.268;2023-09-19T05:21:37;13.30;;;6.35;;
42246;SDS011;27913;42.722;23.268;2023-09-19T05:24:04;12.02;;;6.03;;
42246;SDS011;27913;42.722;23.268;2023-09-19T05:26:31;12.23;;;5.53;;
42246;SDS011;27913;42.722;23.268;2023-09-19T05:28:57;9.52;;;5.55;;
42246;SDS011;27913;42.722;23.268;2023-09-19T05:31:23;8.77;;;5.10;;
42246;SDS011;27913;42.722;23.268;2023-09-19T05:33:50;9.18;;;5.57;;
42246;SDS011;27913;42.722;23.268;2023-09-19T05:36:16;8.10;;;4.75;;
42246;SDS011;27913;42.722;23.268;2023-09-19T05:38:42;9.02;;;4.90;;
42246;SDS011;27913;42.722;23.268;2023-09-19T05:41:09;7.05;;;4.70;;
42246;SDS011;27913;42.722;23.268;2023-09-19T05:43:38;9.95;;;4.28;;
42246;SDS011;27913;42.722;23.268;2023-09-19T05:46:06;7.05;;;4.43;;
42246;SDS011;27913;42.722;23.268;2023-09-19T05:48:33;7.47;;;4.45;;
42246;SDS011;27913;42.722;23.268;2023-09-19T05:50:59;6.78;;;4.03;;
42246;SDS011;27913;42.722;23.268;2023-09-19T05:53:26;12.40;;;4.28;;
42246;SDS011;27913;42.722;23.268;2023-09-19T05:55:52;7.15;;;4.80;;
42246;SDS011;27913;42.722;23.268;2023-09-19T05:58:19;9.05;;;4.57;;
42246;SDS011;27913;42.722;23.268;2023-09-19T06:00:45;12.90;;;4.97;;
42246;SDS011;27913;42.722;23.268;2023-09-19T06:03:12;9.95;;;5.05;;
42246;SDS011;27913;42.722;23.268;2023-09-19T06:05:39;8.82;;;4.93;;
42246;SDS011;27913;42.722;23.268;2023-09-19T06:08:08;7.65;;;4.60;;
42246;SDS011;27913;42.722;23.268;2023-09-19T06:10:36;7.07;;;4.43;;
42246;SDS011;27913;42.722;23.268;2023-09-19T06:13:02;7.00;;;4.88;;
42246;SDS011;27913;42.722;23.268;2023-09-19T06:15:34;7.80;;;4.50;;
42246;SDS011;27913;42.722;23.268;2023-09-19T06:18:01;11.27;;;5.65;;
42246;SDS011;27913;42.722;23.268;2023-09-19T06:20:30;8.07;;;4.75;;
42246;SDS011;27913;42.722;23.268;2023-09-19T06:22:56;7.95;;;4.38;;
42246;SDS011;27913;42.722;23.268;2023-09-19T06:25:22;9.35;;;4.30;;
42246;SDS011;27913;42.722;23.268;2023-09-19T06:27:48;8.00;;;4.40;;
42246;SDS011;27913;42.722;23.268;2023-09-19T06:30:17;5.95;;;3.95;;
42246;SDS011;27913;42.722;23.268;2023-09-19T06:32:43;8.48;;;4.10;;
42246;SDS011;27913;42.722;23.268;2023-09-19T06:35:09;5.93;;;3.72;;
42246;SDS011;27913;42.722;23.268;2023-09-19T06:37:36;7.50;;;3.88;;
42246;SDS011;27913;42.722;23.268;2023-09-19T06:40:08;4.45;;;3.28;;
42246;SDS011;27913;42.722;23.268;2023-09-19T06:42:42;6.95;;;3.90;;
42246;SDS011;27913;42.722;23.268;2023-09-19T06:45:22;5.63;;;3.42;;
42246;SDS011;27913;42.722;23.268;2023-09-19T06:48:12;6.00;;;3.63;;
42246;SDS011;27913;42.722;23.268;2023-09-19T06:50:48;5.93;;;3.78;;
42246;SDS011;27913;42.722;23.268;2023-09-19T06:53:13;5.45;;;3.53;;
42246;SDS011;27913;42.722;23.268;2023-09-19T06:55:42;7.72;;;3.55;;
42246;SDS011;27913;42.722;23.268;2023-09-19T06:58:09;8.95;;;4.15;;
42246;SDS011;27913;42.722;23.268;2023-09-19T07:00:35;6.28;;;3.92;;
42246;SDS011;27913;42.722;23.268;2023-09-19T07:03:03;9.00;;;3.80;;
42246;SDS011;27913;42.722;23.268;2023-09-19T07:05:36;8.93;;;3.85;;
42246;SDS011;27913;42.722;23.268;2023-09-19T07:08:04;6.90;;;3.85;;
42246;SDS011;27913;42.722;23.268;2023-09-19T07:10:31;13.18;;;3.85;;
42246;SDS011;27913;42.722;23.268;2023-09-19T07:13:04;7.75;;;3.83;;
42246;SDS011;27913;42.722;23.268;2023-09-19T07:15:34;6.70;;;4.28;;
42246;SDS011;27913;42.722;23.268;2023-09-19T07:18:12;6.57;;;3.42;;
42246;SDS011;27913;42.722;23.268;2023-09-19T07:20:42;8.60;;;4.60;;
42246;SDS011;27913;42.722;23.268;2023-09-19T07:23:18;7.75;;;3.90;;
42246;SDS011;27913;42.722;23.268;2023-09-19T07:25:47;10.25;;;3.20;;
42246;SDS011;27913;42.722;23.268;2023-09-19T07:28:13;12.82;;;3.83;;
42246;SDS011;27913;42.722;23.268;2023-09-19T07:30:39;4.88;;;3.10;;
42246;SDS011;27913;42.722;23.268;2023-09-19T07:33:07;6.10;;;3.53;;
42246;SDS011;27913;42.722;23.268;2023-09-19T07:35:36;6.18;;;3.30;;
42246;SDS011;27913;42.722;23.268;2023-09-19T07:38:04;7.18;;;4.47;;
42246;SDS011;27913;42.722;23.268;2023-09-19T07:40:30;6.05;;;3.45;;
42246;SDS011;27913;42.722;23.268;2023-09-19T07:42:55;7.13;;;3.72;;
42246;SDS011;27913;42.722;23.268;2023-09-19T07:45:21;8.80;;;3.28;;
42246;SDS011;27913;42.722;23.268;2023-09-19T07:47:48;10.32;;;4.00;;
42246;SDS011;27913;42.722;23.268;2023-09-19T07:50:16;11.07;;;4.03;;
42246;SDS011;27913;42.722;23.268;2023-09-19T07:52:49;13.65;;;4.05;;
42246;SDS011;27913;42.722;23.268;2023-09-19T07:55:18;7.72;;;3.97;;
42246;SDS011;27913;42.722;23.268;2023-09-19T07:57:48;8.33;;;3.90;;
42246;SDS011;27913;42.722;23.268;2023-09-19T08:00:14;7.03;;;3.78;;
42246;SDS011;27913;42.722;23.268;2023-09-19T08:02:40;5.10;;;3.40;;
42246;SDS011;27913;42.722;23.268;2023-09-19T08:05:10;6.78;;;3.45;;
42246;SDS011;27913;42.722;23.268;2023-09-19T08:07:37;5.85;;;3.67;;
42246;SDS011;27913;42.722;23.268;2023-09-19T08:10:04;16.17;;;3.92;;
42246;SDS011;27913;42.722;23.268;2023-09-19T08:12:32;7.13;;;3.75;;
42246;SDS011;27913;42.722;23.268;2023-09-19T08:15:00;6.63;;;3.97;;
42246;SDS011;27913;42.722;23.268;2023-09-19T08:17:27;6.43;;;3.95;;
42246;SDS011;27913;42.722;23.268;2023-09-19T08:19:53;7.03;;;3.70;;
42246;SDS011;27913;42.722;23.268;2023-09-19T08:22:19;10.88;;;4.10;;
42246;SDS011;27913;42.722;23.268;2023-09-19T08:24:46;8.45;;;4.35;;
42246;SDS011;27913;42.722;23.268;2023-09-19T08:27:20;9.13;;;4.22;;
42246;SDS011;27913;42.722;23.268;2023-09-19T08:30:06;6.32;;;3.83;;
42246;SDS011;27913;42.722;23.268;2023-09-19T08:32:32;6.82;;;3.50;;
42246;SDS011;27913;42.722;23.268;2023-09-19T08:34:58;9.18;;;3.58;;
42246;SDS011;27913;42.722;23.268;2023-09-19T08:37:23;9.25;;;5.32;;
42246;SDS011;27913;42.722;23.268;2023-09-19T08:39:48;13.93;;;4.13;;
42246;SDS011;27913;42.722;23.268;2023-09-19T08:42:14;14.00;;;4.20;;
42246;SDS011;27913;42.722;23.268;2023-09-19T08:44:41;8.00;;;4.03;;
42246;SDS011;27913;42.722;23.268;2023-09-19T08:47:09;8.23;;;3.80;;
42246;SDS011;27913;42.722;23.268;2023-09-19T08:49:59;6.40;;;3.70;;
42246;SDS011;27913;42.722;23.268;2023-09-19T08:52:42;6.38;;;3.72;;
42246;SDS011;27913;42.722;23.268;2023-09-19T08:55:12;8.45;;;4.05;;
42246;SDS011;27913;42.722;23.268;2023-09-19T08:57:45;14.88;;;4.90;;
42246;SDS011;27913;42.722;23.268;2023-09-19T09:00:14;10.07;;;3.80;;
42246;SDS011;27913;42.722;23.268;2023-09-19T09:02:42;9.50;;;3.90;;
42246;SDS011;27913;42.722;23.268;2023-09-19T09:05:08;9.30;;;4.07;;
42246;SDS011;27913;42.722;23.268;2023-09-19T09:07:39;7.35;;;3.90;;
42246;SDS011;27913;42.722;23.268;2023-09-19T09:10:05;10.55;;;4.38;;
42246;SDS011;27913;42.722;23.268;2023-09-19T09:12:32;10.00;;;4.20;;
42246;SDS011;27913;42.722;23.268;2023-09-19T09:14:59;10.10;;;4.10;;
42246;SDS011;27913;42.722;23.268;2023-09-19T09:17:25;6.30;;;3.53;;
42246;SDS011;27913;42.722;23.268;2023-09-19T09:19:54;10.15;;;3.92;;
42246;SDS011;27913;42.722;23.268;2023-09-19T09:22:20;7.15;;;4.28;;
42246;SDS011;27913;42.722;23.268;2023-09-19T09:24:53;8.13;;;4.22;;
42246;SDS011;27913;42.722;23.268;2023-09-19T09:27:22;6.63;;;4.15;;
42246;SDS011;27913;42.722;23.268;2023-09-19T09:29:49;11.52;;;5.10;;
42246;SDS011;27913;42.722;23.268;2023-09-19T09:34:52;9.40;;;4.40;;
42246;SDS011;27913;42.722;23.268;2023-09-19T09:37:21;7.47;;;4.75;;
42246;SDS011;27913;42.722;23.268;2023-09-19T09:39:53;10.07;;;5.15;;
42246;SDS011;27913;42.722;23.268;2023-09-19T09:42:34;7.88;;;4.50;;
42246;SDS011;27913;42.722;23.268;2023-09-19T09:45:13;10.48;;;4.65;;
42246;SDS011;27913;42.722;23.268;2023-09-19T09:47:43;10.90;;;4.15;;
42246;SDS011;27913;42.722;23.268;2023-09-19T09:50:27;11.20;;;3.95;;
42246;SDS011;27913;42.722;23.268;2023-09-19T09:53:20;6.65;;;3.92;;
42246;SDS011;27913;42.722;23.268;2023-09-19T09:56:09;7.45;;;4.25;;
42246;SDS011;27913;42.722;23.268;2023-09-19T09:58:37;10.13;;;4.40;;
42246;SDS011;27913;42.722;23.268;2023-09-19T10:01:21;13.13;;;4.55;;
42246;SDS011;27913;42.722;23.268;2023-09-19T10:03:52;8.32;;;4.80;;
42246;SDS011;27913;42.722;23.268;2023-09-19T10:06:22;7.47;;;3.92;;
42246;SDS011;27913;42.722;23.268;2023-09-19T10:09:01;8.80;;;4.93;;
42246;SDS011;27913;42.722;23.268;2023-09-19T10:11:47;9.95;;;4.50;;
42246;SDS011;27913;42.722;23.268;2023-09-19T10:14:22;8.48;;;4.75;;
42246;SDS011;27913;42.722;23.268;2023-09-19T10:16:54;8.95;;;4.97;;
42246;SDS011;27913;42.722;23.268;2023-09-19T10:19:42;10.25;;;4.43;;
42246;SDS011;27913;42.722;23.268;2023-09-19T10:22:26;8.63;;;3.97;;
42246;SDS011;27913;42.722;23.268;2023-09-19T10:24:56;6.27;;;4.37;;
42246;SDS011;27913;42.722;23.268;2023-09-19T10:27:25;6.13;;;4.13;;
42246;SDS011;27913;42.722;23.268;2023-09-19T10:29:51;9.30;;;4.70;;
42246;SDS011;27913;42.722;23.268;2023-09-19T10:32:22;5.97;;;3.55;;
42246;SDS011;27913;42.722;23.268;2023-09-19T10:34:48;6.05;;;4.18;;
42246;SDS011;27913;42.722;23.268;2023-09-19T10:37:16;6.07;;;4.13;;
42246;SDS011;27913;42.722;23.268;2023-09-19T10:39:45;7.68;;;3.97;;
42246;SDS011;27913;42.722;23.268;2023-09-19T10:42:14;9.00;;;4.32;;
42246;SDS011;27913;42.722;23.268;2023-09-19T10:44:45;8.38;;;4.38;;
42246;SDS011;27913;42.722;23.268;2023-09-19T10:47:12;9.35;;;4.75;;
42246;SDS011;27913;42.722;23.268;2023-09-19T10:49:45;7.90;;;3.90;;
42246;SDS011;27913;42.722;23.268;2023-09-19T10:52:12;6.65;;;4.00;;
42246;SDS011;27913;42.722;23.268;2023-09-19T10:54:48;7.32;;;3.97;;
42246;SDS011;27913;42.722;23.268;2023-09-19T10:57:20;8.45;;;4.05;;
42246;SDS011;27913;42.722;23.268;2023-09-19T11:00:07;7.10;;;4.20;;
42246;SDS011;27913;42.722;23.268;2023-09-19T11:05:45;7.88;;;4.15;;
42246;SDS011;27913;42.722;23.268;2023-09-19T11:08:30;8.32;;;4.28;;
42246;SDS011;27913;42.722;23.268;2023-09-19T11:30:39;6.82;;;3.95;;
42246;SDS011;27913;42.722;23.268;2023-09-19T11:33:21;5.85;;;3.95;;
42246;SDS011;27913;42.722;23.268;2023-09-19T11:46:26;6.53;;;4.03;;
42246;SDS011;27913;42.722;23.268;2023-09-19T11:48:53;12.05;;;3.78;;
42246;SDS011;27913;42.722;23.268;2023-09-19T11:51:20;15.10;;;4.40;;
42246;SDS011;27913;42.722;23.268;2023-09-19T11:53:49;6.57;;;4.13;;
42246;SDS011;27913;42.722;23.268;2023-09-19T11:56:16;7.75;;;4.00;;
42246;SDS011;27913;42.722;23.268;2023-09-19T11:58:43;6.50;;;4.00;;
42246;SDS011;27913;42.722;23.268;2023-09-19T12:01:11;8.85;;;4.40;;
42246;SDS011;27913;42.722;23.268;2023-09-19T12:03:45;8.68;;;4.72;;
42246;SDS011;27913;42.722;23.268;2023-09-19T12:06:15;7.65;;;4.15;;
42246;SDS011;27913;42.722;23.268;2023-09-19T12:08:42;6.78;;;3.92;;
42246;SDS011;27913;42.722;23.268;2023-09-19T12:11:12;14.32;;;4.82;;
42246;SDS011;27913;42.722;23.268;2023-09-19T12:13:44;6.95;;;4.40;;
42246;SDS011;27913;42.722;23.268;2023-09-19T12:16:18;10.43;;;3.97;;
42246;SDS011;27913;42.722;23.268;2023-09-19T12:18:47;8.38;;;4.78;;
42246;SDS011;27913;42.722;23.268;2023-09-19T12:21:30;8.40;;;4.72;;
42246;SDS011;27913;42.722;23.268;2023-09-19T12:23:57;10.02;;;4.57;;
42246;SDS011;27913;42.722;23.268;2023-09-19T12:26:30;8.20;;;4.38;;
42246;SDS011;27913;42.722;23.268;2023-09-19T12:29:04;7.63;;;4.30;;
42246;SDS011;27913;42.722;23.268;2023-09-19T12:31:30;9.40;;;4.50;;
42246;SDS011;27913;42.722;23.268;2023-09-19T12:36:22;7.55;;;4.38;;
42246;SDS011;27913;42.722;23.268;2023-09-19T12:38:54;8.55;;;4.25;;
42246;SDS011;27913;42.722;23.268;2023-09-19T12:41:20;9.95;;;4.38;;
42246;SDS011;27913;42.722;23.268;2023-09-19T12:43:47;11.52;;;4.18;;
42246;SDS011;27913;42.722;23.268;2023-09-19T12:46:13;7.07;;;4.75;;
42246;SDS011;27913;42.722;23.268;2023-09-19T12:48:40;7.63;;;4.75;;
42246;SDS011;27913;42.722;23.268;2023-09-19T12:51:09;11.52;;;4.47;;
42246;SDS011;27913;42.722;23.268;2023-09-19T12:53:41;6.60;;;4.70;;
42246;SDS011;27913;42.722;23.268;2023-09-19T12:56:14;6.82;;;3.95;;
42246;SDS011;27913;42.722;23.268;2023-09-19T13:01:20;7.03;;;4.10;;
42246;SDS011;27913;42.722;23.268;2023-09-19T13:04:15;9.05;;;4.75;;
42246;SDS011;27913;42.722;23.268;2023-09-19T13:06:48;10.27;;;4.78;;
42246;SDS011;27913;42.722;23.268;2023-09-19T13:09:22;7.50;;;4.72;;
42246;SDS011;27913;42.722;23.268;2023-09-19T13:11:53;9.57;;;4.35;;
42246;SDS011;27913;42.722;23.268;2023-09-19T13:16:56;6.65;;;4.03;;
42246;SDS011;27913;42.722;23.268;2023-09-19T13:22:38;7.88;;;4.68;;
42246;SDS011;27913;42.722;23.268;2023-09-19T13:25:10;8.05;;;4.38;;
42246;SDS011;27913;42.722;23.268;2023-09-19T13:27:43;8.52;;;4.85;;
42246;SDS011;27913;42.722;23.268;2023-09-19T13:30:11;7.82;;;4.40;;
42246;SDS011;27913;42.722;23.268;2023-09-19T13:32:37;8.75;;;4.35;;
42246;SDS011;27913;42.722;23.268;2023-09-19T13:35:05;7.28;;;4.57;;
42246;SDS011;27913;42.722;23.268;2023-09-19T13:37:34;8.63;;;5.03;;
42246;SDS011;27913;42.722;23.268;2023-09-19T13:40:06;8.57;;;4.68;;
42246;SDS011;27913;42.722;23.268;2023-09-19T13:42:33;11.15;;;4.60;;
42246;SDS011;27913;42.722;23.268;2023-09-19T13:44:58;8.57;;;4.90;;
42246;SDS011;27913;42.722;23.268;2023-09-19T13:47:24;8.27;;;4.57;;
42246;SDS011;27913;42.722;23.268;2023-09-19T13:49:51;7.55;;;4.47;;
42246;SDS011;27913;42.722;23.268;2023-09-19T13:52:18;7.93;;;5.07;;
42246;SDS011;27913;42.722;23.268;2023-09-19T13:54:46;16.13;;;5.18;;
42246;SDS011;27913;42.722;23.268;2023-09-19T13:57:12;8.18;;;4.82;;
42246;SDS011;27913;42.722;23.268;2023-09-19T13:59:38;11.23;;;4.78;;
42246;SDS011;27913;42.722;23.268;2023-09-19T14:02:04;8.48;;;4.63;;
42246;SDS011;27913;42.722;23.268;2023-09-19T14:04:32;7.18;;;4.10;;
42246;SDS011;27913;42.722;23.268;2023-09-19T14:06:59;7.43;;;4.88;;
42246;SDS011;27913;42.722;23.268;2023-09-19T14:09:26;8.88;;;4.70;;
42246;SDS011;27913;42.722;23.268;2023-09-19T14:11:52;6.82;;;4.63;;
42246;SDS011;27913;42.722;23.268;2023-09-19T14:14:20;8.60;;;4.40;;
42246;SDS011;27913;42.722;23.268;2023-09-19T14:16:48;10.30;;;4.72;;
42246;SDS011;27913;42.722;23.268;2023-09-19T14:19:14;9.55;;;4.40;;
42246;SDS011;27913;42.722;23.268;2023-09-19T14:21:41;7.70;;;4.70;;
42246;SDS011;27913;42.722;23.268;2023-09-19T14:24:07;7.70;;;4.78;;
42246;SDS011;27913;42.722;23.268;2023-09-19T14:26:35;9.30;;;5.30;;
42246;SDS011;27913;42.722;23.268;2023-09-19T14:29:01;8.32;;;4.38;;
42246;SDS011;27913;42.722;23.268;2023-09-19T14:31:27;8.30;;;4.78;;
42246;SDS011;27913;42.722;23.268;2023-09-19T14:33:53;7.53;;;4.72;;
42246;SDS011;27913;42.722;23.268;2023-09-19T14:36:21;9.55;;;5.10;;
42246;SDS011;27913;42.722;23.268;2023-09-19T14:38:46;7.38;;;4.32;;
42246;SDS011;27913;42.722;23.268;2023-09-19T14:41:12;8.55;;;4.38;;
42246;SDS011;27913;42.722;23.268;2023-09-19T14:43:38;8.57;;;4.78;;
42246;SDS011;27913;42.722;23.268;2023-09-19T14:46:04;6.35;;;4.53;;
42246;SDS011;27913;42.722;23.268;2023-09-19T14:48:29;6.20;;;4.38;;
42246;SDS011;27913;42.722;23.268;2023-09-19T14:50:55;6.97;;;4.65;;
42246;SDS011;27913;42.722;23.268;2023-09-19T14:53:20;12.98;;;4.75;;
42246;SDS011;27913;42.722;23.268;2023-09-19T14:55:46;8.15;;;4.95;;
42246;SDS011;27913;42.722;23.268;2023-09-19T14:58:13;9.35;;;5.07;;
42246;SDS011;27913;42.722;23.268;2023-09-19T15:00:39;8.85;;;4.65;;
42246;SDS011;27913;42.722;23.268;2023-09-19T15:03:05;8.65;;;4.93;;
42246;SDS011;27913;42.722;23.268;2023-09-19T15:05:31;9.35;;;4.47;;
42246;SDS011;27913;42.722;23.268;2023-09-19T15:07:56;9.65;;;4.85;;
42246;SDS011;27913;42.722;23.268;2023-09-19T15:10:23;8.77;;;6.10;;
42246;SDS011;27913;42.722;23.268;2023-09-19T15:12:49;8.45;;;5.07;;
42246;SDS011;27913;42.722;23.268;2023-09-19T15:15:16;12.02;;;4.65;;
42246;SDS011;27913;42.722;23.268;2023-09-19T15:17:42;8.25;;;5.00;;
42246;SDS011;27913;42.722;23.268;2023-09-19T15:20:07;6.90;;;5.00;;
42246;SDS011;27913;42.722;23.268;2023-09-19T15:22:33;11.93;;;5.43;;
42246;SDS011;27913;42.722;23.268;2023-09-19T15:25:02;7.72;;;4.32;;
42246;SDS011;27913;42.722;23.268;2023-09-19T15:27:29;8.70;;;4.95;;
42246;SDS011;27913;42.722;23.268;2023-09-19T15:29:56;10.20;;;5.22;;
42246;SDS011;27913;42.722;23.268;2023-09-19T15:32:23;6.82;;;5.07;;
42246;SDS011;27913;42.722;23.268;2023-09-19T15:34:49;11.95;;;5.43;;
42246;SDS011;27913;42.722;23.268;2023-09-19T15:37:15;8.18;;;5.50;;
42246;SDS011;27913;42.722;23.268;2023-09-19T15:39:41;10.95;;;5.60;;
42246;SDS011;27913;42.722;23.268;2023-09-19T15:42:07;8.98;;;5.00;;
42246;SDS011;27913;42.722;23.268;2023-09-19T15:44:32;7.22;;;4.85;;
42246;SDS011;27913;42.722;23.268;2023-09-19T15:46:58;8.45;;;5.47;;
42246;SDS011;27913;42.722;23.268;2023-09-19T15:49:24;8.85;;;5.22;;
42246;SDS011;27913;42.722;23.268;2023-09-19T15:51:49;10.00;;;5.40;;
42246;SDS011;27913;42.722;23.268;2023-09-19T15:54:15;12.88;;;5.20;;
42246;SDS011;27913;42.722;23.268;2023-09-19T15:56:41;12.82;;;5.18;;
42246;SDS011;27913;42.722;23.268;2023-09-19T15:59:09;17.83;;;6.35;;
42246;SDS011;27913;42.722;23.268;2023-09-19T16:01:38;9.07;;;5.57;;
42246;SDS011;27913;42.722;23.268;2023-09-19T16:04:11;9.00;;;5.35;;
42246;SDS011;27913;42.722;23.268;2023-09-19T16:06:37;15.40;;;6.25;;
42246;SDS011;27913;42.722;23.268;2023-09-19T16:09:03;10.40;;;5.63;;
42246;SDS011;27913;42.722;23.268;2023-09-19T16:11:34;9.73;;;6.22;;
42246;SDS011;27913;42.722;23.268;2023-09-19T16:14:02;8.80;;;4.93;;
42246;SDS011;27913;42.722;23.268;2023-09-19T16:16:29;12.15;;;5.10;;
42246;SDS011;27913;42.722;23.268;2023-09-19T16:18:57;10.45;;;5.65;;
42246;SDS011;27913;42.722;23.268;2023-09-19T16:21:28;15.07;;;6.55;;
42246;SDS011;27913;42.722;23.268;2023-09-19T16:23:55;13.68;;;6.03;;
42246;SDS011;27913;42.722;23.268;2023-09-19T16:26:22;12.02;;;6.60;;
42246;SDS011;27913;42.722;23.268;2023-09-19T16:28:52;11.90;;;6.20;;
42246;SDS011;27913;42.722;23.268;2023-09-19T16:31:20;14.25;;;6.20;;
42246;SDS011;27913;42.722;23.268;2023-09-19T16:33:46;10.35;;;5.80;;
42246;SDS011;27913;42.722;23.268;2023-09-19T16:36:13;9.35;;;5.85;;
42246;SDS011;27913;42.722;23.268;2023-09-19T16:38:41;10.77;;;6.13;;
42246;SDS011;27913;42.722;23.268;2023-09-19T16:41:08;9.40;;;6.32;;
42246;SDS011;27913;42.722;23.268;2023-09-19T16:43:34;11.48;;;5.95;;
42246;SDS011;27913;42.722;23.268;2023-09-19T16:46:02;9.55;;;5.72;;
42246;SDS011;27913;42.722;23.268;2023-09-19T16:48:30;10.60;;;5.88;;
42246;SDS011;27913;42.722;23.268;2023-09-19T16:51:06;9.07;;;5.80;;
42246;SDS011;27913;42.722;23.268;2023-09-19T16:53:35;12.27;;;5.68;;
42246;SDS011;27913;42.722;23.268;2023-09-19T16:56:02;7.68;;;5.43;;
42246;SDS011;27913;42.722;23.268;2023-09-19T16:58:29;11.98;;;5.43;;
42246;SDS011;27913;42.722;23.268;2023-09-19T17:00:58;8.57;;;4.28;;
42246;SDS011;27913;42.722;23.268;2023-09-19T17:03:27;7.25;;;4.63;;
42246;SDS011;27913;42.722;23.268;2023-09-19T17:05:57;10.48;;;5.05;;
42246;SDS011;27913;42.722;23.268;2023-09-19T17:08:24;8.77;;;4.80;;
42246;SDS011;27913;42.722;23.268;2023-09-19T17:10:51;8.27;;;4.68;;
42246;SDS011;27913;42.722;23.268;2023-09-19T17:13:17;6.13;;;4.43;;
42246;SDS011;27913;42.722;23.268;2023-09-19T17:15:43;12.10;;;5.88;;
42246;SDS011;27913;42.722;23.268;2023-09-19T17:18:08;11.20;;;4.65;;
42246;SDS011;27913;42.722;23.268;2023-09-19T17:20:33;9.45;;;4.38;;
42246;SDS011;27913;42.722;23.268;2023-09-19T17:22:59;6.70;;;4.47;;
42246;SDS011;27913;42.722;23.268;2023-09-19T17:25:25;8.63;;;4.53;;
42246;SDS011;27913;42.722;23.268;2023-09-19T17:27:53;6.78;;;4.70;;
42246;SDS011;27913;42.722;23.268;2023-09-19T17:30:19;11.85;;;4.35;;
42246;SDS011;27913;42.722;23.268;2023-09-19T17:32:45;15.93;;;5.20;;
42246;SDS011;27913;42.722;23.268;2023-09-19T17:35:11;10.35;;;4.55;;
42246;SDS011;27913;42.722;23.268;2023-09-19T17:37:43;8.50;;;4.70;;
42246;SDS011;27913;42.722;23.268;2023-09-19T17:40:11;9.32;;;4.10;;
42246;SDS011;27913;42.722;23.268;2023-09-19T17:42:37;11.02;;;4.47;;
42246;SDS011;27913;42.722;23.268;2023-09-19T17:48:31;12.63;;;5.07;;
42246;SDS011;27913;42.722;23.268;2023-09-19T17:51:00;9.02;;;5.93;;
42246;SDS011;27913;42.722;23.268;2023-09-19T17:55:53;8.55;;;4.57;;
42246;SDS011;27913;42.722;23.268;2023-09-19T17:58:20;7.47;;;4.57;;
42246;SDS011;27913;42.722;23.268;2023-09-19T18:00:46;7.40;;;4.32;;
42246;SDS011;27913;42.722;23.268;2023-09-19T18:03:11;9.70;;;5.13;;
42246;SDS011;27913;42.722;23.268;2023-09-19T18:05:42;6.88;;;4.68;;
42246;SDS011;27913;42.722;23.268;2023-09-19T18:08:09;9.38;;;4.90;;
42246;SDS011;27913;42.722;23.268;2023-09-19T18:10:39;7.82;;;4.45;;
42246;SDS011;27913;42.722;23.268;2023-09-19T18:13:05;6.97;;;4.57;;
42246;SDS011;27913;42.722;23.268;2023-09-19T18:15:31;10.77;;;4.68;;
42246;SDS011;27913;42.722;23.268;2023-09-19T18:18:02;6.53;;;4.82;;
42246;SDS011;27913;42.722;23.268;2023-09-19T18:20:36;7.75;;;4.63;;
42246;SDS011;27913;42.722;23.268;2023-09-19T18:23:03;10.95;;;5.43;;
42246;SDS011;27913;42.722;23.268;2023-09-19T18:25:30;9.40;;;5.95;;
42246;SDS011;27913;42.722;23.268;2023-09-19T18:27:55;14.35;;;6.32;;
42246;SDS011;27913;42.722;23.268;2023-09-19T18:34:05;10.63;;;6.07;;
42246;SDS011;27913;42.722;23.268;2023-09-19T18:36:35;9.02;;;5.82;;
42246;SDS011;27913;42.722;23.268;2023-09-19T18:39:01;10.68;;;5.55;;
42246;SDS011;27913;42.722;23.268;2023-09-19T18:41:29;11.55;;;5.63;;
42246;SDS011;27913;42.722;23.268;2023-09-19T18:43:55;10.55;;;5.22;;
42246;SDS011;27913;42.722;23.268;2023-09-19T18:46:23;8.52;;;5.20;;
42246;SDS011;27913;42.722;23.268;2023-09-19T18:48:52;8.57;;;4.93;;
42246;SDS011;27913;42.722;23.268;2023-09-19T18:51:18;12.65;;;5.57;;
42246;SDS011;27913;42.722;23.268;2023-09-19T18:53:43;7.80;;;5.05;;
42246;SDS011;27913;42.722;23.268;2023-09-19T18:56:11;6.75;;;4.88;;
42246;SDS011;27913;42.722;23.268;2023-09-19T18:58:41;8.27;;;5.38;;
42246;SDS011;27913;42.722;23.268;2023-09-19T19:01:07;11.73;;;5.50;;
42246;SDS011;27913;42.722;23.268;2023-09-19T19:03:34;14.18;;;6.07;;
42246;SDS011;27913;42.722;23.268;2023-09-19T19:06:06;9.40;;;4.60;;
42246;SDS011;27913;42.722;23.268;2023-09-19T19:08:34;7.95;;;4.82;;
42246;SDS011;27913;42.722;23.268;2023-09-19T19:11:05;8.60;;;4.65;;
42246;SDS011;27913;42.722;23.268;2023-09-19T19:13:32;13.05;;;4.95;;
42246;SDS011;27913;42.722;23.268;2023-09-19T19:15:57;8.48;;;4.72;;
42246;SDS011;27913;42.722;23.268;2023-09-19T19:18:24;6.72;;;4.40;;
42246;SDS011;27913;42.722;23.268;2023-09-19T19:21:02;8.07;;;4.18;;
42246;SDS011;27913;42.722;23.268;2023-09-19T19:23:37;8.90;;;4.25;;
42246;SDS011;27913;42.722;23.268;2023-09-19T19:26:04;8.10;;;4.10;;
42246;SDS011;27913;42.722;23.268;2023-09-19T19:28:32;9.55;;;4.32;;
42246;SDS011;27913;42.722;23.268;2023-09-19T19:31:04;10.23;;;4.00;;
42246;SDS011;27913;42.722;23.268;2023-09-19T19:33:32;7.65;;;4.18;;
42246;SDS011;27913;42.722;23.268;2023-09-19T19:36:08;8.18;;;4.28;;
42246;SDS011;27913;42.722;23.268;2023-09-19T19:38:35;5.93;;;3.85;;
42246;SDS011;27913;42.722;23.268;2023-09-19T19:41:10;6.63;;;4.10;;
42246;SDS011;27913;42.722;23.268;2023-09-19T19:43:36;7.68;;;3.60;;
42246;SDS011;27913;42.722;23.268;2023-09-19T19:46:03;9.80;;;3.92;;
42246;SDS011;27913;42.722;23.268;2023-09-19T19:48:29;6.80;;;3.70;;
42246;SDS011;27913;42.722;23.268;2023-09-19T19:50:55;6.93;;;3.83;;